sensor_id;sensor_type;location;lat;lon;timestamp;pressure;altitude;pressure_sealevel;temperature
27986;BMP280;15453;53.692;10.168;2023-03-12T00:01:24;100726.72;;;5.80
27986;BMP280;15453;53.692;10.168;2023-03-12T00:03:51;100730.50;;;5.79
27986;BMP280;15453;53.692;10.168;2023-03-12T00:06:19;100725.91;;;5.79
27986;BMP280;15453;53.692;10.168;2023-03-12T00:08:45;100728.41;;;5.81
27986;BMP280;15453;53.692;10.168;2023-03-12T00:11:14;100727.75;;;5.85
27986;BMP280;15453;53.692;10.168;2023-03-12T00:13:40;100727.75;;;5.85
27986;BMP280;15453;53.692;10.168;2023-03-12T00:16:07;100740.94;;;5.88
27986;BMP280;15453;53.692;10.168;2023-03-12T00:18:33;100740.94;;;5.88
27986;BMP280;15453;53.692;10.168;2023-03-12T00:20:58;100733.19;;;5.85
27986;BMP280;15453;53.692;10.168;2023-03-12T00:23:24;100734.25;;;5.84
27986;BMP280;15453;53.692;10.168;2023-03-12T00:25:49;100722.97;;;5.87
27986;BMP280;15453;53.692;10.168;2023-03-12T00:28:15;100722.97;;;5.87
27986;BMP280;15453;53.692;10.168;2023-03-12T00:30:40;100727.75;;;5.85
27986;BMP280;15453;53.692;10.168;2023-03-12T00:33:06;100731.31;;;5.86
27986;BMP280;15453;53.692;10.168;2023-03-12T00:35:31;100722.97;;;5.87
27986;BMP280;15453;53.692;10.168;2023-03-12T00:37:57;100723.78;;;5.88
27986;BMP280;15453;53.692;10.168;2023-03-12T00:40:22;100733.59;;;5.89
27986;BMP280;15453;53.692;10.168;2023-03-12T00:42:47;100731.72;;;5.89
27986;BMP280;15453;53.692;10.168;2023-03-12T00:45:13;100731.72;;;5.89
27986;BMP280;15453;53.692;10.168;2023-03-12T00:47:38;100724.41;;;5.90
27986;BMP280;15453;53.692;10.168;2023-03-12T00:50:04;100730.66;;;5.90
27986;BMP280;15453;53.692;10.168;2023-03-12T00:52:29;100729.16;;;5.94
27986;BMP280;15453;53.692;10.168;2023-03-12T00:54:54;100729.16;;;5.94
27986;BMP280;15453;53.692;10.168;2023-03-12T00:57:23;100737.75;;;5.91
27986;BMP280;15453;53.692;10.168;2023-03-12T00:59:48;100734.22;;;5.91
27986;BMP280;15453;53.692;10.168;2023-03-12T01:02:13;100737.75;;;5.91
27986;BMP280;15453;53.692;10.168;2023-03-12T01:04:38;100736.09;;;5.90
27986;BMP280;15453;53.692;10.168;2023-03-12T01:07:04;100736.09;;;5.90
27986;BMP280;15453;53.692;10.168;2023-03-12T01:09:29;100739.03;;;5.89
27986;BMP280;15453;53.692;10.168;2023-03-12T01:11:54;100742.38;;;5.91
27986;BMP280;15453;53.692;10.168;2023-03-12T01:14:19;100747.41;;;5.87
27986;BMP280;15453;53.692;10.168;2023-03-12T01:16:45;100747.41;;;5.87
27986;BMP280;15453;53.692;10.168;2023-03-12T01:19:10;100756.22;;;5.83
27986;BMP280;15453;53.692;10.168;2023-03-12T01:21:36;100757.88;;;5.84
27986;BMP280;15453;53.692;10.168;2023-03-12T01:24:01;100754.56;;;5.82
27986;BMP280;15453;53.692;10.168;2023-03-12T01:26:36;100766.25;;;5.82
27986;BMP280;15453;53.692;10.168;2023-03-12T01:29:04;100766.25;;;5.82
27986;BMP280;15453;53.692;10.168;2023-03-12T01:31:29;100766.03;;;5.77
27986;BMP280;15453;53.692;10.168;2023-03-12T01:33:55;100772.31;;;5.78
27986;BMP280;15453;53.692;10.168;2023-03-12T01:36:25;100772.31;;;5.78
27986;BMP280;15453;53.692;10.168;2023-03-12T01:38:53;100761.88;;;5.75
27986;BMP280;15453;53.692;10.168;2023-03-12T01:41:19;100771.47;;;5.77
27986;BMP280;15453;53.692;10.168;2023-03-12T01:43:44;100773.78;;;5.74
27986;BMP280;15453;53.692;10.168;2023-03-12T01:48:44;100772.94;;;5.73
27986;BMP280;15453;53.692;10.168;2023-03-12T01:51:11;100770.63;;;5.77
27986;BMP280;15453;53.692;10.168;2023-03-12T01:53:39;100770.63;;;5.77
27986;BMP280;15453;53.692;10.168;2023-03-12T01:56:06;100759.38;;;5.73
27986;BMP280;15453;53.692;10.168;2023-03-12T01:58:33;100768.16;;;5.75
27986;BMP280;15453;53.692;10.168;2023-03-12T02:01:00;100776.31;;;5.75
27986;BMP280;15453;53.692;10.168;2023-03-12T02:03:26;100770.63;;;5.77
27986;BMP280;15453;53.692;10.168;2023-03-12T02:05:55;100763.53;;;5.76
27986;BMP280;15453;53.692;10.168;2023-03-12T02:08:23;100760.59;;;5.77
27986;BMP280;15453;53.692;10.168;2023-03-12T02:10:48;100760.59;;;5.77
27986;BMP280;15453;53.692;10.168;2023-03-12T02:13:13;100755.84;;;5.73
27986;BMP280;15453;53.692;10.168;2023-03-12T02:15:39;100759.38;;;5.73
27986;BMP280;15453;53.692;10.168;2023-03-12T02:18:06;100751.22;;;5.73
27986;BMP280;15453;53.692;10.168;2023-03-12T02:20:51;100755.84;;;5.73
27986;BMP280;15453;53.692;10.168;2023-03-12T02:23:31;100749.97;;;5.69
27986;BMP280;15453;53.692;10.168;2023-03-12T02:25:58;100743.94;;;5.67
27986;BMP280;15453;53.692;10.168;2023-03-12T02:28:26;100757.06;;;5.70
27986;BMP280;15453;53.692;10.168;2023-03-12T02:30:56;100751.63;;;5.70
27986;BMP280;15453;53.692;10.168;2023-03-12T02:33:22;100750.81;;;5.70
27986;BMP280;15453;53.692;10.168;2023-03-12T02:35:47;100746.19;;;5.70
27986;BMP280;15453;53.692;10.168;2023-03-12T02:38:36;100749.78;;;5.71
27986;BMP280;15453;53.692;10.168;2023-03-12T02:43:34;100750.59;;;5.71
27986;BMP280;15453;53.692;10.168;2023-03-12T02:45:59;100750.41;;;5.73
27986;BMP280;15453;53.692;10.168;2023-03-12T02:48:25;100753.13;;;5.73
27986;BMP280;15453;53.692;10.168;2023-03-12T02:50:50;100758.09;;;5.76
27986;BMP280;15453;53.692;10.168;2023-03-12T02:53:15;100755.38;;;5.76
27986;BMP280;15453;53.692;10.168;2023-03-12T02:55:40;100749.94;;;5.76
27986;BMP280;15453;53.692;10.168;2023-03-12T02:58:05;100752.44;;;5.77
27986;BMP280;15453;53.692;10.168;2023-03-12T03:00:31;100754.31;;;5.77
27986;BMP280;15453;53.692;10.168;2023-03-12T03:03:00;100755.16;;;5.77
27986;BMP280;15453;53.692;10.168;2023-03-12T03:05:25;100756.22;;;5.76
27986;BMP280;15453;53.692;10.168;2023-03-12T03:07:50;100753.06;;;5.79
27986;BMP280;15453;53.692;10.168;2023-03-12T03:10:16;100762.47;;;5.77
27986;BMP280;15453;53.692;10.168;2023-03-12T03:12:41;100767.69;;;5.78
27986;BMP280;15453;53.692;10.168;2023-03-12T03:15:07;100754.31;;;5.77
27986;BMP280;15453;53.692;10.168;2023-03-12T03:17:33;100769.38;;;5.79
27986;BMP280;15453;53.692;10.168;2023-03-12T03:19:58;100772.91;;;5.80
27986;BMP280;15453;53.692;10.168;2023-03-12T03:22:23;100772.09;;;5.79
27986;BMP280;15453;53.692;10.168;2023-03-12T03:24:48;100770.63;;;5.77
27986;BMP280;15453;53.692;10.168;2023-03-12T03:27:14;100770.63;;;5.77
27986;BMP280;15453;53.692;10.168;2023-03-12T03:29:40;100768.16;;;5.75
27986;BMP280;15453;53.692;10.168;2023-03-12T03:32:05;100774.84;;;5.73
27986;BMP280;15453;53.692;10.168;2023-03-12T03:34:31;100766.06;;;5.71
27986;BMP280;15453;53.692;10.168;2023-03-12T03:36:56;100769.00;;;5.69
27986;BMP280;15453;53.692;10.168;2023-03-12T03:39:21;100769.00;;;5.69
27986;BMP280;15453;53.692;10.168;2023-03-12T03:41:47;100774.84;;;5.66
27986;BMP280;15453;53.692;10.168;2023-03-12T03:44:12;100774.84;;;5.66
27986;BMP280;15453;53.692;10.168;2023-03-12T03:46:38;100764.44;;;5.63
27986;BMP280;15453;53.692;10.168;2023-03-12T03:49:04;100761.09;;;5.61
27986;BMP280;15453;53.692;10.168;2023-03-12T03:51:29;100762.78;;;5.62
27986;BMP280;15453;53.692;10.168;2023-03-12T03:53:55;100771.97;;;5.61
27986;BMP280;15453;53.692;10.168;2023-03-12T03:56:21;100770.94;;;5.62
27986;BMP280;15453;53.692;10.168;2023-03-12T03:58:46;100772.81;;;5.62
27986;BMP280;15453;53.692;10.168;2023-03-12T04:01:12;100778.84;;;5.64
27986;BMP280;15453;53.692;10.168;2023-03-12T04:03:38;100779.69;;;5.64
27986;BMP280;15453;53.692;10.168;2023-03-12T04:06:04;100773.41;;;5.64
27986;BMP280;15453;53.692;10.168;2023-03-12T04:08:31;100773.41;;;5.64
27986;BMP280;15453;53.692;10.168;2023-03-12T04:11:08;100772.13;;;5.66
27986;BMP280;15453;53.692;10.168;2023-03-12T04:13:34;100774.84;;;5.66
27986;BMP280;15453;53.692;10.168;2023-03-12T04:16:00;100774.84;;;5.66
27986;BMP280;15453;53.692;10.168;2023-03-12T04:18:25;100781.13;;;5.67
27986;BMP280;15453;53.692;10.168;2023-03-12T04:20:50;100781.13;;;5.67
27986;BMP280;15453;53.692;10.168;2023-03-12T04:23:15;100777.56;;;5.66
27986;BMP280;15453;53.692;10.168;2023-03-12T04:25:41;100777.56;;;5.66
27986;BMP280;15453;53.692;10.168;2023-03-12T04:28:06;100765.03;;;5.65
27986;BMP280;15453;53.692;10.168;2023-03-12T04:30:32;100767.56;;;5.67
27986;BMP280;15453;53.692;10.168;2023-03-12T04:32:57;100765.69;;;5.67
27986;BMP280;15453;53.692;10.168;2023-03-12T04:35:22;100765.69;;;5.67
27986;BMP280;15453;53.692;10.168;2023-03-12T04:37:49;100768.81;;;5.64
27986;BMP280;15453;53.692;10.168;2023-03-12T04:40:14;100759.81;;;5.64
27986;BMP280;15453;53.692;10.168;2023-03-12T04:42:39;100761.53;;;5.65
27986;BMP280;15453;53.692;10.168;2023-03-12T04:45:05;100758.81;;;5.65
27986;BMP280;15453;53.692;10.168;2023-03-12T04:47:32;100747.94;;;5.65
27986;BMP280;15453;53.692;10.168;2023-03-12T04:49:58;100740.59;;;5.65
27986;BMP280;15453;53.692;10.168;2023-03-12T04:52:24;100744.16;;;5.66
27986;BMP280;15453;53.692;10.168;2023-03-12T04:54:49;100752.91;;;5.68
27986;BMP280;15453;53.692;10.168;2023-03-12T04:57:15;100752.91;;;5.68
27986;BMP280;15453;53.692;10.168;2023-03-12T04:59:40;100742.25;;;5.66
27986;BMP280;15453;53.692;10.168;2023-03-12T05:02:05;100741.22;;;5.67
27986;BMP280;15453;53.692;10.168;2023-03-12T05:04:31;100741.22;;;5.67
27986;BMP280;15453;53.692;10.168;2023-03-12T05:06:56;100739.16;;;5.63
27986;BMP280;15453;53.692;10.168;2023-03-12T05:09:21;100734.34;;;5.65
27986;BMP280;15453;53.692;10.168;2023-03-12T05:11:47;100733.72;;;5.63
27986;BMP280;15453;53.692;10.168;2023-03-12T05:14:12;100733.72;;;5.63
27986;BMP280;15453;53.692;10.168;2023-03-12T05:16:37;100733.72;;;5.63
27986;BMP280;15453;53.692;10.168;2023-03-12T05:19:03;100742.28;;;5.60
27986;BMP280;15453;53.692;10.168;2023-03-12T05:21:29;100750.69;;;5.58
27986;BMP280;15453;53.692;10.168;2023-03-12T05:23:54;100744.41;;;5.58
27986;BMP280;15453;53.692;10.168;2023-03-12T05:26:25;100752.78;;;5.56
27986;BMP280;15453;53.692;10.168;2023-03-12T05:28:51;100753.81;;;5.55
27986;BMP280;15453;53.692;10.168;2023-03-12T05:31:17;100755.69;;;5.55
27986;BMP280;15453;53.692;10.168;2023-03-12T05:33:42;100755.69;;;5.55
27986;BMP280;15453;53.692;10.168;2023-03-12T05:36:08;100749.44;;;5.54
27986;BMP280;15453;53.692;10.168;2023-03-12T05:38:34;100753.19;;;5.53
27986;BMP280;15453;53.692;10.168;2023-03-12T05:41:00;100750.47;;;5.53
27986;BMP280;15453;53.692;10.168;2023-03-12T05:43:26;100757.81;;;5.53
27986;BMP280;15453;53.692;10.168;2023-03-12T05:45:51;100757.81;;;5.53
27986;BMP280;15453;53.692;10.168;2023-03-12T05:48:17;100755.31;;;5.51
27986;BMP280;15453;53.692;10.168;2023-03-12T05:50:43;100755.31;;;5.51
27986;BMP280;15453;53.692;10.168;2023-03-12T05:53:09;100754.06;;;5.47
27986;BMP280;15453;53.692;10.168;2023-03-12T05:55:36;100748.00;;;5.45
27986;BMP280;15453;53.692;10.168;2023-03-12T05:58:02;100749.69;;;5.46
27986;BMP280;15453;53.692;10.168;2023-03-12T06:00:28;100749.69;;;5.46
27986;BMP280;15453;53.692;10.168;2023-03-12T06:02:53;100745.94;;;5.41
27986;BMP280;15453;53.692;10.168;2023-03-12T06:05:18;100742.41;;;5.40
27986;BMP280;15453;53.692;10.168;2023-03-12T06:07:43;100756.19;;;5.39
27986;BMP280;15453;53.692;10.168;2023-03-12T06:10:09;100751.00;;;5.37
27986;BMP280;15453;53.692;10.168;2023-03-12T06:12:35;100750.16;;;5.37
27986;BMP280;15453;53.692;10.168;2023-03-12T06:15:00;100744.72;;;5.37
27986;BMP280;15453;53.692;10.168;2023-03-12T06:17:28;100744.09;;;5.35
27986;BMP280;15453;53.692;10.168;2023-03-12T06:19:53;100743.88;;;5.36
27986;BMP280;15453;53.692;10.168;2023-03-12T06:22:18;100745.78;;;5.36
27986;BMP280;15453;53.692;10.168;2023-03-12T06:24:44;100736.56;;;5.37
27986;BMP280;15453;53.692;10.168;2023-03-12T06:27:12;100740.13;;;5.37
27986;BMP280;15453;53.692;10.168;2023-03-12T06:29:37;100732.81;;;5.38
27986;BMP280;15453;53.692;10.168;2023-03-12T06:32:02;100737.81;;;5.41
27986;BMP280;15453;53.692;10.168;2023-03-12T06:34:28;100737.81;;;5.41
27986;BMP280;15453;53.692;10.168;2023-03-12T06:36:53;100726.31;;;5.39
27986;BMP280;15453;53.692;10.168;2023-03-12T06:39:18;100727.16;;;5.39
27986;BMP280;15453;53.692;10.168;2023-03-12T06:41:44;100731.94;;;5.44
27986;BMP280;15453;53.692;10.168;2023-03-12T06:44:09;100720.25;;;5.43
27986;BMP280;15453;53.692;10.168;2023-03-12T06:46:34;100720.25;;;5.43
27986;BMP280;15453;53.692;10.168;2023-03-12T06:49:01;100720.66;;;5.40
27986;BMP280;15453;53.692;10.168;2023-03-12T06:51:26;100728.19;;;5.45
27986;BMP280;15453;53.692;10.168;2023-03-12T06:53:51;100728.19;;;5.45
27986;BMP280;15453;53.692;10.168;2023-03-12T06:56:16;100709.00;;;5.40
27986;BMP280;15453;53.692;10.168;2023-03-12T06:58:42;100732.38;;;5.41
27986;BMP280;15453;53.692;10.168;2023-03-12T07:01:07;100732.38;;;5.41
27986;BMP280;15453;53.692;10.168;2023-03-12T07:03:33;100726.56;;;5.37
27986;BMP280;15453;53.692;10.168;2023-03-12T07:05:59;100727.38;;;5.38
27986;BMP280;15453;53.692;10.168;2023-03-12T07:08:25;100729.88;;;5.39
27986;BMP280;15453;53.692;10.168;2023-03-12T07:10:50;100718.81;;;5.41
27986;BMP280;15453;53.692;10.168;2023-03-12T07:13:16;100729.25;;;5.44
27986;BMP280;15453;53.692;10.168;2023-03-12T07:15:42;100724.63;;;5.44
27986;BMP280;15453;53.692;10.168;2023-03-12T07:18:10;100719.59;;;5.48
27986;BMP280;15453;53.692;10.168;2023-03-12T07:20:36;100719.16;;;5.51
27986;BMP280;15453;53.692;10.168;2023-03-12T07:23:02;100714.34;;;5.53
27986;BMP280;15453;53.692;10.168;2023-03-12T07:25:27;100718.31;;;5.57
27986;BMP280;15453;53.692;10.168;2023-03-12T07:27:52;100723.47;;;5.65
27986;BMP280;15453;53.692;10.168;2023-03-12T07:30:18;100723.47;;;5.65
27986;BMP280;15453;53.692;10.168;2023-03-12T07:32:43;100726.16;;;5.71
27986;BMP280;15453;53.692;10.168;2023-03-12T07:35:09;100726.16;;;5.71
27986;BMP280;15453;53.692;10.168;2023-03-12T07:37:34;100720.72;;;5.71
27986;BMP280;15453;53.692;10.168;2023-03-12T07:39:59;100719.00;;;5.77
27986;BMP280;15453;53.692;10.168;2023-03-12T07:42:25;100719.00;;;5.77
27986;BMP280;15453;53.692;10.168;2023-03-12T07:44:50;100717.13;;;5.77
27986;BMP280;15453;53.692;10.168;2023-03-12T07:47:15;100712.31;;;5.79
27986;BMP280;15453;53.692;10.168;2023-03-12T07:49:41;100711.28;;;5.80
27986;BMP280;15453;53.692;10.168;2023-03-12T07:52:07;100707.28;;;5.83
27986;BMP280;15453;53.692;10.168;2023-03-12T07:54:35;100710.41;;;5.86
27986;BMP280;15453;53.692;10.168;2023-03-12T07:57:01;100713.69;;;5.95
27986;BMP280;15453;53.692;10.168;2023-03-12T07:59:26;100713.69;;;5.95
27986;BMP280;15453;53.692;10.168;2023-03-12T08:01:52;100716.41;;;5.95
27986;BMP280;15453;53.692;10.168;2023-03-12T08:04:17;100708.22;;;6.01
27986;BMP280;15453;53.692;10.168;2023-03-12T08:06:42;100717.59;;;6.05
27986;BMP280;15453;53.692;10.168;2023-03-12T08:09:08;100708.16;;;6.08
27986;BMP280;15453;53.692;10.168;2023-03-12T08:11:34;100709.97;;;6.14
27986;BMP280;15453;53.692;10.168;2023-03-12T08:14:01;100716.00;;;6.22
27986;BMP280;15453;53.692;10.168;2023-03-12T08:16:26;100716.00;;;6.22
27986;BMP280;15453;53.692;10.168;2023-03-12T08:18:51;100705.72;;;6.24
27986;BMP280;15453;53.692;10.168;2023-03-12T08:21:16;100708.00;;;6.28
27986;BMP280;15453;53.692;10.168;2023-03-12T08:23:42;100711.09;;;6.31
27986;BMP280;15453;53.692;10.168;2023-03-12T08:26:07;100706.28;;;6.33
27986;BMP280;15453;53.692;10.168;2023-03-12T08:28:32;100705.84;;;6.36
27986;BMP280;15453;53.692;10.168;2023-03-12T08:30:59;100696.19;;;6.40
27986;BMP280;15453;53.692;10.168;2023-03-12T08:33:25;100701.78;;;6.45
27986;BMP280;15453;53.692;10.168;2023-03-12T08:35:50;100702.16;;;6.49
27986;BMP280;15453;53.692;10.168;2023-03-12T08:38:16;100692.50;;;6.53
27986;BMP280;15453;53.692;10.168;2023-03-12T08:40:41;100686.38;;;6.57
27986;BMP280;15453;53.692;10.168;2023-03-12T08:43:06;100692.81;;;6.63
27986;BMP280;15453;53.692;10.168;2023-03-12T08:45:33;100693.78;;;6.68
27986;BMP280;15453;53.692;10.168;2023-03-12T08:48:01;100690.41;;;6.73
27986;BMP280;15453;53.692;10.168;2023-03-12T08:50:26;100684.03;;;6.79
27986;BMP280;15453;53.692;10.168;2023-03-12T08:52:53;100683.97;;;6.85
27986;BMP280;15453;53.692;10.168;2023-03-12T08:55:18;100675.97;;;6.90
27986;BMP280;15453;53.692;10.168;2023-03-12T08:57:44;100678.84;;;6.95
27986;BMP280;15453;53.692;10.168;2023-03-12T09:00:10;100683.38;;;7.01
27986;BMP280;15453;53.692;10.168;2023-03-12T09:02:38;100685.66;;;7.04
27986;BMP280;15453;53.692;10.168;2023-03-12T09:05:04;100683.06;;;7.09
27986;BMP280;15453;53.692;10.168;2023-03-12T09:07:30;100672.56;;;7.13
27986;BMP280;15453;53.692;10.168;2023-03-12T09:09:56;100675.44;;;7.18
27986;BMP280;15453;53.692;10.168;2023-03-12T09:12:22;100671.19;;;7.22
27986;BMP280;15453;53.692;10.168;2023-03-12T09:14:48;100667.75;;;7.26
27986;BMP280;15453;53.692;10.168;2023-03-12T09:17:13;100667.91;;;7.31
27986;BMP280;15453;53.692;10.168;2023-03-12T09:19:38;100661.78;;;7.36
27986;BMP280;15453;53.692;10.168;2023-03-12T09:22:04;100652.94;;;7.40
27986;BMP280;15453;53.692;10.168;2023-03-12T09:24:29;100642.63;;;7.42
27986;BMP280;15453;53.692;10.168;2023-03-12T09:26:54;100650.91;;;7.47
27986;BMP280;15453;53.692;10.168;2023-03-12T09:29:20;100641.44;;;7.50
27986;BMP280;15453;53.692;10.168;2023-03-12T09:31:45;100644.56;;;7.53
27986;BMP280;15453;53.692;10.168;2023-03-12T09:34:10;100644.06;;;7.56
27986;BMP280;15453;53.692;10.168;2023-03-12T09:36:36;100641.97;;;7.58
27986;BMP280;15453;53.692;10.168;2023-03-12T09:39:01;100636.06;;;7.61
27986;BMP280;15453;53.692;10.168;2023-03-12T09:41:29;100636.63;;;7.63
27986;BMP280;15453;53.692;10.168;2023-03-12T09:44:08;100628.25;;;7.65
27986;BMP280;15453;53.692;10.168;2023-03-12T09:46:40;100633.69;;;7.65
27986;BMP280;15453;53.692;10.168;2023-03-12T09:49:18;100628.00;;;7.66
27986;BMP280;15453;53.692;10.168;2023-03-12T09:51:48;100642.00;;;7.70
27986;BMP280;15453;53.692;10.168;2023-03-12T09:54:28;100626.25;;;7.72
27986;BMP280;15453;53.692;10.168;2023-03-12T09:56:59;100601.22;;;7.75
27986;BMP280;15453;53.692;10.168;2023-03-12T09:59:26;100594.13;;;7.85
27986;BMP280;15453;53.692;10.168;2023-03-12T10:02:00;100594.13;;;7.85
27986;BMP280;15453;53.692;10.168;2023-03-12T10:04:32;100575.88;;;7.86
27986;BMP280;15453;53.692;10.168;2023-03-12T10:07:20;100584.41;;;7.89
27986;BMP280;15453;53.692;10.168;2023-03-12T10:10:00;100578.72;;;7.91
27986;BMP280;15453;53.692;10.168;2023-03-12T10:12:39;100570.09;;;7.94
27986;BMP280;15453;53.692;10.168;2023-03-12T10:21:06;100534.41;;;8.07
27986;BMP280;15453;53.692;10.168;2023-03-12T10:26:22;100514.38;;;8.13
27986;BMP280;15453;53.692;10.168;2023-03-12T10:29:01;100510.56;;;8.25
27986;BMP280;15453;53.692;10.168;2023-03-12T10:31:35;100510.56;;;8.25
27986;BMP280;15453;53.692;10.168;2023-03-12T10:34:10;100490.16;;;8.28
27986;BMP280;15453;53.692;10.168;2023-03-12T10:36:39;100502.03;;;8.33
27986;BMP280;15453;53.692;10.168;2023-03-12T10:39:13;100482.31;;;8.43
27986;BMP280;15453;53.692;10.168;2023-03-12T10:41:40;100482.31;;;8.43
27986;BMP280;15453;53.692;10.168;2023-03-12T10:44:07;100475.44;;;8.40
27986;BMP280;15453;53.692;10.168;2023-03-12T10:52:08;100474.69;;;8.45
27986;BMP280;15453;53.692;10.168;2023-03-12T10:54:40;100457.25;;;8.46
27986;BMP280;15453;53.692;10.168;2023-03-12T10:57:09;100462.00;;;8.50
27986;BMP280;15453;53.692;10.168;2023-03-12T10:59:37;100442.41;;;8.53
27986;BMP280;15453;53.692;10.168;2023-03-12T11:02:38;100439.78;;;8.58
27986;BMP280;15453;53.692;10.168;2023-03-12T11:05:47;100448.81;;;8.59
27986;BMP280;15453;53.692;10.168;2023-03-12T11:08:22;100449.63;;;8.59
27986;BMP280;15453;53.692;10.168;2023-03-12T11:10:49;100457.56;;;8.61
27986;BMP280;15453;53.692;10.168;2023-03-12T11:13:36;100444.50;;;8.63
27986;BMP280;15453;53.692;10.168;2023-03-12T11:16:23;100443.69;;;8.62
27986;BMP280;15453;53.692;10.168;2023-03-12T11:18:57;100440.34;;;8.60
27986;BMP280;15453;53.692;10.168;2023-03-12T11:21:24;100458.41;;;8.61
27986;BMP280;15453;53.692;10.168;2023-03-12T11:26:23;100450.13;;;8.56
27986;BMP280;15453;53.692;10.168;2023-03-12T11:28:57;100452.00;;;8.56
27986;BMP280;15453;53.692;10.168;2023-03-12T11:31:28;100448.44;;;8.55
27986;BMP280;15453;53.692;10.168;2023-03-12T11:34:02;100451.41;;;8.54
27986;BMP280;15453;53.692;10.168;2023-03-12T11:36:44;100450.59;;;8.53
27986;BMP280;15453;53.692;10.168;2023-03-12T11:39:48;100447.03;;;8.53
27986;BMP280;15453;53.692;10.168;2023-03-12T11:45:05;100443.50;;;8.52
27986;BMP280;15453;53.692;10.168;2023-03-12T11:50:10;100428.75;;;8.53
27986;BMP280;15453;53.692;10.168;2023-03-12T11:53:02;100442.97;;;8.55
27986;BMP280;15453;53.692;10.168;2023-03-12T11:58:34;100440.50;;;8.54
27986;BMP280;15453;53.692;10.168;2023-03-12T12:01:10;100439.69;;;8.53
27986;BMP280;15453;53.692;10.168;2023-03-12T12:06:54;100420.81;;;8.52
27986;BMP280;15453;53.692;10.168;2023-03-12T12:12:32;100429.84;;;8.52
27986;BMP280;15453;53.692;10.168;2023-03-12T12:15:22;100430.19;;;8.56
27986;BMP280;15453;53.692;10.168;2023-03-12T12:31:17;100412.72;;;8.57
27986;BMP280;15453;53.692;10.168;2023-03-12T12:36:27;100382.38;;;8.53
27986;BMP280;15453;53.692;10.168;2023-03-12T12:38:57;100386.19;;;8.52
27986;BMP280;15453;53.692;10.168;2023-03-12T12:41:29;100378.81;;;8.53
27986;BMP280;15453;53.692;10.168;2023-03-12T12:46:36;100384.25;;;8.53
27986;BMP280;15453;53.692;10.168;2023-03-12T12:49:09;100385.91;;;8.54
27986;BMP280;15453;53.692;10.168;2023-03-12T12:51:40;100373.09;;;8.54
27986;BMP280;15453;53.692;10.168;2023-03-12T12:54:25;100382.94;;;8.55
27986;BMP280;15453;53.692;10.168;2023-03-12T13:00:10;100358.63;;;8.54
27986;BMP280;15453;53.692;10.168;2023-03-12T13:02:40;100349.63;;;8.53
27986;BMP280;15453;53.692;10.168;2023-03-12T13:05:26;100334.66;;;8.56
27986;BMP280;15453;53.692;10.168;2023-03-12T13:07:53;100334.91;;;8.54
27986;BMP280;15453;53.692;10.168;2023-03-12T13:13:18;100335.72;;;8.55
27986;BMP280;15453;53.692;10.168;2023-03-12T13:15:44;100336.31;;;8.57
27986;BMP280;15453;53.692;10.168;2023-03-12T13:18:24;100336.38;;;8.62
27986;BMP280;15453;53.692;10.168;2023-03-12T13:23:30;100327.00;;;8.69
27986;BMP280;15453;53.692;10.168;2023-03-12T13:34:07;100297.69;;;8.65
27986;BMP280;15453;53.692;10.168;2023-03-12T13:36:36;100295.44;;;8.62
27986;BMP280;15453;53.692;10.168;2023-03-12T13:41:32;100290.75;;;8.57
27986;BMP280;15453;53.692;10.168;2023-03-12T13:43:58;100282.56;;;8.57
27986;BMP280;15453;53.692;10.168;2023-03-12T13:46:32;100281.97;;;8.55
27986;BMP280;15453;53.692;10.168;2023-03-12T13:49:02;100283.53;;;8.51
27986;BMP280;15453;53.692;10.168;2023-03-12T13:51:28;100272.03;;;8.49
27986;BMP280;15453;53.692;10.168;2023-03-12T13:54:01;100258.66;;;8.48
27986;BMP280;15453;53.692;10.168;2023-03-12T13:56:29;100267.56;;;8.43
27986;BMP280;15453;53.692;10.168;2023-03-12T13:58:59;100273.28;;;8.42
27986;BMP280;15453;53.692;10.168;2023-03-12T14:01:29;100272.69;;;8.40
27986;BMP280;15453;53.692;10.168;2023-03-12T14:03:58;100270.44;;;8.37
27986;BMP280;15453;53.692;10.168;2023-03-12T14:06:26;100274.25;;;8.36
27986;BMP280;15453;53.692;10.168;2023-03-12T14:17:18;100274.56;;;8.23
27986;BMP280;15453;53.692;10.168;2023-03-12T14:19:46;100261.06;;;8.16
27986;BMP280;15453;53.692;10.168;2023-03-12T14:22:13;100258.81;;;8.13
27986;BMP280;15453;53.692;10.168;2023-03-12T14:24:41;100254.34;;;8.07
27986;BMP280;15453;53.692;10.168;2023-03-12T14:27:18;100247.72;;;8.03
27986;BMP280;15453;53.692;10.168;2023-03-12T14:29:54;100235.06;;;7.97
27986;BMP280;15453;53.692;10.168;2023-03-12T14:32:30;100251.09;;;7.94
27986;BMP280;15453;53.692;10.168;2023-03-12T14:35:15;100228.09;;;7.90
27986;BMP280;15453;53.692;10.168;2023-03-12T14:37:43;100224.22;;;7.86
27986;BMP280;15453;53.692;10.168;2023-03-12T14:40:37;100217.34;;;7.83
27986;BMP280;15453;53.692;10.168;2023-03-12T14:43:21;100216.44;;;7.78
27986;BMP280;15453;53.692;10.168;2023-03-12T14:45:53;100218.59;;;7.76
27986;BMP280;15453;53.692;10.168;2023-03-12T14:48:21;100216.09;;;7.74
27986;BMP280;15453;53.692;10.168;2023-03-12T14:50:46;100216.91;;;7.75
27986;BMP280;15453;53.692;10.168;2023-03-12T14:53:22;100213.59;;;7.73
27986;BMP280;15453;53.692;10.168;2023-03-12T14:56:05;100222.88;;;7.72
27986;BMP280;15453;53.692;10.168;2023-03-12T14:58:33;100216.25;;;7.68
27986;BMP280;15453;53.692;10.168;2023-03-12T15:01:04;100227.94;;;7.68
27986;BMP280;15453;53.692;10.168;2023-03-12T15:03:39;100217.56;;;7.65
27986;BMP280;15453;53.692;10.168;2023-03-12T15:06:13;100209.63;;;7.64
27986;BMP280;15453;53.692;10.168;2023-03-12T15:08:41;100189.72;;;7.63
27986;BMP280;15453;53.692;10.168;2023-03-12T15:11:09;100187.59;;;7.65
27986;BMP280;15453;53.692;10.168;2023-03-12T15:13:36;100178.81;;;7.63
27986;BMP280;15453;53.692;10.168;2023-03-12T15:16:02;100178.81;;;7.63
27986;BMP280;15453;53.692;10.168;2023-03-12T15:18:30;100174.34;;;7.57
27986;BMP280;15453;53.692;10.168;2023-03-12T15:20:57;100176.47;;;7.55
27986;BMP280;15453;53.692;10.168;2023-03-12T15:23:25;100180.28;;;7.54
27986;BMP280;15453;53.692;10.168;2023-03-12T15:26:08;100175.28;;;7.51